Time;durP1;ratioP1;P1;durP2;ratioP2;P2;SDS_P1;SDS_P2;PMS_P1;PMS_P2;Temp;Humidity;BMP_temperature;BMP_pressure;BME280_temperature;BME280_humidity;BME280_pressure;Samples;Min_cycle;Max_cycle;Signal;HPM_P1;HPM_P2
2022/03/31 00:00:32;;;;;;;10.45;7.53;;;;;;;6.97;54.78;98443.72;5090916;28;20048;-60
2022/03/31 00:03:00;;;;;;;12.00;7.72;;;;;;;6.98;54.64;98444.53;5091138;28;20504;-61
2022/03/31 00:05:27;;;;;;;12.15;7.88;;;;;;;6.98;54.66;98442.78;5089597;28;20040;-61
2022/03/31 00:07:57;;;;;;;11.63;7.78;;;;;;;6.98;54.95;98429.69;5091020;28;20040;-60
2022/03/31 00:10:28;;;;;;;9.57;6.68;;;;;;;6.99;54.99;98441.00;5090680;28;20553;-60
2022/03/31 00:12:55;;;;;;;12.23;6.75;;;;;;;6.99;54.91;98430.53;5089557;28;20047;-60
2022/03/31 00:15:23;;;;;;;10.45;6.57;;;;;;;6.98;55.33;98429.69;5088288;28;20055;-61
2022/03/31 00:17:50;;;;;;;10.18;6.85;;;;;;;6.98;54.96;98428.84;5088205;28;20101;-60
2022/03/31 00:20:17;;;;;;;10.68;6.70;;;;;;;6.98;55.05;98426.22;5089969;28;20106;-60
2022/03/31 00:22:44;;;;;;;11.50;6.45;;;;;;;6.98;55.22;98426.22;5089189;28;20079;-59
2022/03/31 00:25:11;;;;;;;8.93;6.68;;;;;;;6.97;54.95;98420.16;5089847;28;20044;-59
2022/03/31 00:27:39;;;;;;;9.25;6.47;;;;;;;6.97;55.12;98416.69;5089468;28;20047;-61
2022/03/31 00:30:08;;;;;;;9.45;6.68;;;;;;;6.97;55.20;98416.69;5089112;28;20048;-59
2022/03/31 00:32:37;;;;;;;9.13;6.72;;;;;;;6.94;55.43;98414.28;5089255;28;20523;-61
2022/03/31 00:35:05;;;;;;;7.85;5.97;;;;;;;6.93;54.85;98408.22;5089328;28;20389;-59
2022/03/31 00:37:32;;;;;;;11.25;7.05;;;;;;;6.93;54.95;98410.84;5089137;28;20059;-60
2022/03/31 00:39:59;;;;;;;8.38;6.30;;;;;;;6.93;55.12;98408.22;5090693;28;20048;-60
2022/03/31 00:42:26;;;;;;;8.13;6.15;;;;;;;6.93;55.00;98409.97;5090297;28;20121;-59
2022/03/31 00:44:52;;;;;;;7.85;6.35;;;;;;;6.92;55.42;98406.53;5090453;28;20056;-60
2022/03/31 00:47:19;;;;;;;8.88;6.53;;;;;;;6.91;55.09;98403.06;5090309;28;20048;-60
2022/03/31 00:49:46;;;;;;;8.75;6.80;;;;;;;6.91;55.11;98395.22;5090186;28;20064;-60
2022/03/31 00:52:13;;;;;;;9.70;6.32;;;;;;;6.91;55.18;98392.63;5090020;28;20052;-60
2022/03/31 00:54:41;;;;;;;9.90;6.57;;;;;;;6.91;55.22;98390.00;5090499;28;20052;-60
2022/03/31 00:57:12;;;;;;;10.00;6.72;;;;;;;6.90;55.41;98380.47;5088961;28;20048;-60
2022/03/31 00:59:39;;;;;;;9.57;7.15;;;;;;;6.90;55.22;98379.63;5090210;28;20048;-61
2022/03/31 01:02:05;;;;;;;12.68;6.80;;;;;;;6.89;55.73;98380.56;5088920;28;20051;-60
2022/03/31 01:04:34;;;;;;;9.88;7.50;;;;;;;6.87;55.49;98377.19;5090311;28;20458;-59
2022/03/31 01:07:01;;;;;;;12.48;6.97;;;;;;;6.85;55.61;98377.31;5090108;28;20055;-61
2022/03/31 01:09:28;;;;;;;12.63;6.75;;;;;;;6.85;55.52;98385.19;5089949;28;20538;-59
2022/03/31 01:11:54;;;;;;;8.70;6.43;;;;;;;6.86;56.02;98378.16;5089887;28;20048;-59
2022/03/31 01:14:21;;;;;;;9.65;6.70;;;;;;;6.85;56.01;98377.31;5090361;28;20060;-60
2022/03/31 01:16:48;;;;;;;8.32;6.05;;;;;;;6.87;56.04;98379.81;5085232;28;20077;-59
2022/03/31 01:19:14;;;;;;;8.48;6.15;;;;;;;6.88;56.08;98361.41;5084222;28;20553;-60
2022/03/31 01:21:43;;;;;;;10.00;6.57;;;;;;;6.90;56.36;98375.25;5089598;28;20454;-60
2022/03/31 01:24:13;;;;;;;12.02;7.38;;;;;;;6.91;56.11;98361.22;5088575;28;20071;-60
2022/03/31 01:26:41;;;;;;;7.82;6.57;;;;;;;6.96;56.20;98367.94;5088568;28;20048;-60
2022/03/31 01:29:09;;;;;;;10.88;7.15;;;;;;;6.97;56.32;98365.22;5089781;28;20052;-60
2022/03/31 01:31:40;;;;;;;12.10;6.88;;;;;;;6.98;56.41;98361.66;5088447;28;20078;-61
2022/03/31 01:34:07;;;;;;;10.00;6.93;;;;;;;7.01;55.88;98368.47;5088497;28;20393;-59
2022/03/31 01:36:35;;;;;;;8.98;6.85;;;;;;;7.01;56.09;98355.41;5092150;28;20550;-59
2022/03/31 01:39:03;;;;;;;11.82;7.35;;;;;;;7.02;56.35;98355.28;5093834;28;20143;-60
2022/03/31 01:41:30;;;;;;;10.90;7.55;;;;;;;7.03;55.81;98353.53;5093715;28;20098;-60
2022/03/31 01:43:57;;;;;;;15.43;7.53;;;;;;;7.04;56.14;98356.03;5093984;28;20498;-60
2022/03/31 01:46:24;;;;;;;10.98;7.88;;;;;;;7.03;55.73;98353.53;5093860;28;20585;-62
2022/03/31 01:48:52;;;;;;;12.25;7.25;;;;;;;7.05;56.24;98354.25;5092401;28;20139;-60
2022/03/31 01:51:19;;;;;;;9.80;7.10;;;;;;;7.02;56.07;98350.06;5093300;28;20408;-59
2022/03/31 01:53:47;;;;;;;11.07;7.75;;;;;;;7.03;56.15;98345.69;5092258;28;20771;-60
2022/03/31 01:56:14;;;;;;;10.00;7.45;;;;;;;7.02;56.06;98347.44;5093617;28;20112;-60
2022/03/31 01:58:40;;;;;;;9.27;6.88;;;;;;;7.03;56.23;98343.06;5093553;28;20549;-60
2022/03/31 02:01:07;;;;;;;10.27;7.13;;;;;;;7.01;56.26;98340.53;5093177;28;20082;-60
2022/03/31 02:03:34;;;;;;;12.88;7.93;;;;;;;7.00;56.30;98333.63;5093345;28;20052;-61
2022/03/31 02:06:00;;;;;;;13.00;7.80;;;;;;;7.00;56.04;98336.22;5093177;28;20494;-59
2022/03/31 02:08:27;;;;;;;11.35;7.68;;;;;;;7.00;56.32;98336.22;5093148;28;20052;-61
2022/03/31 02:10:53;;;;;;;11.65;7.72;;;;;;;7.00;56.43;98331.00;5092858;28;20105;-59
2022/03/31 02:13:20;;;;;;;10.05;7.90;;;;;;;7.00;56.37;98330.19;5093220;28;20533;-62
2022/03/31 02:15:47;;;;;;;10.77;7.88;;;;;;;7.00;56.30;98335.41;5093172;28;20056;-59
2022/03/31 02:18:13;;;;;;;11.65;7.90;;;;;;;6.99;56.33;98326.72;5093011;28;20071;-60
2022/03/31 02:20:41;;;;;;;10.77;7.50;;;;;;;6.97;56.25;98320.75;5092673;28;20059;-60
2022/03/31 02:23:08;;;;;;;10.10;7.72;;;;;;;6.99;56.41;98318.03;5093043;28;20048;-60
2022/03/31 02:25:35;;;;;;;10.57;7.90;;;;;;;6.97;56.16;98322.53;5092695;28;20105;-60
2022/03/31 02:28:01;;;;;;;10.27;7.38;;;;;;;6.96;56.35;98316.47;5092902;28;20044;-60
2022/03/31 02:30:29;;;;;;;13.85;8.18;;;;;;;6.95;56.36;98313.94;5092826;28;20048;-60
2022/03/31 02:32:58;;;;;;;12.90;8.57;;;;;;;6.93;56.48;98310.56;5091506;28;20051;-61
2022/03/31 02:35:26;;;;;;;14.80;7.85;;;;;;;6.93;56.54;98308.81;5092525;28;20553;-61
2022/03/31 02:37:53;;;;;;;11.02;7.82;;;;;;;6.93;56.52;98310.56;5092892;28;20059;-59
2022/03/31 02:40:20;;;;;;;12.70;7.05;;;;;;;6.91;56.47;98308.06;5092489;28;20060;-60
2022/03/31 02:42:47;;;;;;;10.73;7.68;;;;;;;6.90;56.56;98303.78;5092743;28;20133;-60
2022/03/31 02:45:14;;;;;;;12.80;7.70;;;;;;;6.88;56.50;98303.88;5092598;28;20056;-60
2022/03/31 02:47:44;;;;;;;13.32;7.55;;;;;;;6.86;56.55;98297.91;5090380;28;20733;-60
2022/03/31 02:50:12;;;;;;;12.30;7.32;;;;;;;6.85;56.57;98298.84;5092416;28;20669;-60
2022/03/31 02:55:25;;;;;;;14.32;7.43;;;;;;;6.86;56.67;98300.53;5092435;28;20044;-59
2022/03/31 02:57:53;;;;;;;11.00;7.20;;;;;;;6.86;56.82;98287.44;5091161;28;20058;-60
2022/03/31 03:00:20;;;;;;;15.07;8.15;;;;;;;6.85;56.83;98282.31;5091925;28;20240;-60
2022/03/31 03:02:46;;;;;;;10.95;7.70;;;;;;;6.84;57.02;98284.09;5091023;28;20058;-59
2022/03/31 03:05:14;;;;;;;10.48;6.72;;;;;;;6.82;56.71;98283.34;5092138;28;20086;-61
2022/03/31 03:07:47;;;;;;;9.73;6.82;;;;;;;6.82;57.09;98285.97;5092107;28;20052;-60
2022/03/31 03:10:13;;;;;;;9.90;6.63;;;;;;;6.83;56.90;98284.19;5091643;28;20055;-61
2022/03/31 03:12:41;;;;;;;9.40;6.82;;;;;;;6.84;56.69;98278.84;5091740;28;20474;-60
2022/03/31 03:15:09;;;;;;;9.57;6.60;;;;;;;6.82;57.17;98278.13;5092272;28;20059;-60
2022/03/31 03:17:45;;;;;;;11.07;6.43;;;;;;;6.80;57.84;98268.72;5090624;28;20553;-60
2022/03/31 03:20:14;;;;;;;11.57;6.75;;;;;;;6.81;56.96;98271.22;5091634;28;20047;-61
2022/03/31 03:22:49;;;;;;;13.00;6.93;;;;;;;6.82;57.07;98270.28;5090393;28;20056;-59
2022/03/31 03:25:18;;;;;;;8.43;6.20;;;;;;;6.83;57.00;98268.47;5091749;28;20056;-60
2022/03/31 03:27:47;;;;;;;10.27;6.40;;;;;;;6.82;57.01;98269.44;5090736;28;20048;-59
2022/03/31 03:30:17;;;;;;;11.48;6.95;;;;;;;6.82;57.14;98266.81;5090143;28;20050;-61
2022/03/31 03:32:45;;;;;;;13.88;7.47;;;;;;;6.82;56.97;98267.66;5090351;28;20105;-60
2022/03/31 03:35:13;;;;;;;13.85;6.97;;;;;;;6.81;57.18;98260.75;5090265;28;20040;-60
2022/03/31 03:37:42;;;;;;;10.98;7.13;;;;;;;6.81;57.20;98265.16;5091394;28;20055;-61
2022/03/31 03:40:11;;;;;;;10.85;6.47;;;;;;;6.80;57.25;98263.47;5089823;28;20059;-59
2022/03/31 03:42:38;;;;;;;10.48;6.85;;;;;;;6.79;57.18;98265.25;5091320;28;20090;-60
2022/03/31 03:45:06;;;;;;;9.30;6.40;;;;;;;6.78;57.19;98269.63;5089864;28;20052;-60
2022/03/31 03:47:33;;;;;;;11.95;6.90;;;;;;;6.77;57.42;98262.72;5089917;28;20059;-60
2022/03/31 03:50:00;;;;;;;9.95;6.95;;;;;;;6.77;57.20;98265.34;5091086;28;20101;-60
2022/03/31 03:52:26;;;;;;;11.73;6.80;;;;;;;6.78;57.33;98260.97;5090808;28;20096;-61
2022/03/31 03:54:53;;;;;;;10.57;7.13;;;;;;;6.79;57.19;98262.63;5089627;28;20102;-60
2022/03/31 03:57:19;;;;;;;10.85;6.25;;;;;;;6.79;57.31;98257.41;5091101;28;20109;-60
2022/03/31 03:59:46;;;;;;;12.52;6.78;;;;;;;6.80;57.26;98255.63;5091015;28;20048;-60
2022/03/31 04:02:12;;;;;;;12.15;6.93;;;;;;;6.81;57.40;98252.06;5091013;28;20055;-62
2022/03/31 04:04:39;;;;;;;13.05;6.57;;;;;;;6.82;57.41;98251.13;5090822;28;20064;-60
2022/03/31 04:07:06;;;;;;;10.07;7.15;;;;;;;6.83;57.43;98258.03;5090996;28;20511;-60
2022/03/31 04:09:32;;;;;;;11.93;6.43;;;;;;;6.83;57.33;98252.78;5090776;28;20101;-60
2022/03/31 04:11:59;;;;;;;8.02;5.88;;;;;;;6.83;57.34;98264.09;5090725;28;20060;-60
2022/03/31 04:14:25;;;;;;;9.93;7.10;;;;;;;6.83;57.63;98253.63;5090873;28;20060;-60
2022/03/31 04:16:54;;;;;;;7.97;6.18;;;;;;;6.85;57.37;98261.38;5090893;28;20079;-60
2022/03/31 04:19:21;;;;;;;10.48;6.93;;;;;;;6.84;57.40;98260.53;5090426;28;20454;-60
2022/03/31 04:21:48;;;;;;;10.60;7.10;;;;;;;6.85;57.50;98250.94;5090572;28;20056;-60
2022/03/31 04:24:15;;;;;;;9.70;6.68;;;;;;;6.86;57.80;98258.69;5089578;28;20492;-60
2022/03/31 04:26:42;;;;;;;12.02;7.50;;;;;;;6.87;57.87;98252.50;5090651;28;20052;-60
2022/03/31 04:29:10;;;;;;;14.35;7.20;;;;;;;6.89;57.81;98253.22;5090452;28;20499;-61
2022/03/31 04:31:39;;;;;;;14.95;6.82;;;;;;;6.90;58.00;98251.47;5090164;28;20144;-61
2022/03/31 04:34:06;;;;;;;14.07;7.57;;;;;;;6.91;57.86;98247.91;5088987;28;20048;-60
2022/03/31 04:36:32;;;;;;;9.25;6.43;;;;;;;6.93;57.74;98253.03;5090358;28;21067;-59
2022/03/31 04:38:59;;;;;;;8.77;6.63;;;;;;;6.93;57.99;98253.88;5089192;28;20048;-59
2022/03/31 04:41:26;;;;;;;12.45;6.72;;;;;;;6.95;57.69;98251.97;5088859;28;20056;-61
2022/03/31 04:43:53;;;;;;;12.35;6.95;;;;;;;6.96;57.85;98253.69;5090166;28;20051;-59
2022/03/31 04:46:20;;;;;;;10.98;7.30;;;;;;;6.97;57.57;98246.66;5089987;28;20051;-60
2022/03/31 04:48:46;;;;;;;10.73;7.43;;;;;;;6.97;57.92;98251.88;5090370;28;20110;-61
2022/03/31 04:51:13;;;;;;;10.15;7.25;;;;;;;6.96;58.07;98261.53;5089792;28;20499;-59
2022/03/31 04:53:40;;;;;;;11.95;6.53;;;;;;;6.97;58.07;98259.72;5089988;28;20443;-60
2022/03/31 04:56:06;;;;;;;10.05;7.47;;;;;;;6.96;58.28;98253.69;5090267;28;20056;-60
2022/03/31 04:58:36;;;;;;;11.77;7.07;;;;;;;6.97;58.18;98257.13;5090190;28;20044;-59
2022/03/31 05:01:04;;;;;;;12.63;7.68;;;;;;;6.97;58.34;98267.59;5088438;28;20058;-61
2022/03/31 05:03:30;;;;;;;10.93;8.13;;;;;;;6.97;58.10;98263.19;5088999;28;20079;-60
2022/03/31 05:05:57;;;;;;;11.57;7.80;;;;;;;6.96;58.00;98256.31;5090197;28;20048;-60
2022/03/31 05:08:24;;;;;;;12.68;7.90;;;;;;;6.96;58.28;98258.91;5090327;28;20048;-61
2022/03/31 05:10:51;;;;;;;13.88;8.38;;;;;;;6.96;58.29;98263.31;5089245;28;20048;-60
2022/03/31 05:13:17;;;;;;;13.20;7.45;;;;;;;6.97;58.06;98262.34;5089930;28;20435;-59
2022/03/31 05:15:44;;;;;;;12.13;7.95;;;;;;;6.97;58.36;98262.34;5089648;28;20542;-61
2022/03/31 05:18:10;;;;;;;16.70;8.77;;;;;;;6.97;58.37;98264.97;5090095;28;20056;-60
2022/03/31 05:20:37;;;;;;;12.85;8.32;;;;;;;6.98;58.28;98262.25;5089675;28;20058;-62
2022/03/31 05:23:04;;;;;;;14.27;8.38;;;;;;;6.96;58.30;98263.31;5089718;28;20048;-60
2022/03/31 05:25:31;;;;;;;12.00;7.78;;;;;;;6.95;58.35;98259.00;5089806;28;20113;-60
2022/03/31 05:28:00;;;;;;;11.90;7.40;;;;;;;6.93;58.37;98258.25;5089905;28;20105;-60
2022/03/31 05:30:26;;;;;;;11.80;7.90;;;;;;;6.91;58.26;98261.81;5089176;28;20058;-60
2022/03/31 05:32:53;;;;;;;14.73;8.75;;;;;;;6.90;58.54;98262.78;5088482;28;20063;-58
2022/03/31 05:35:21;;;;;;;12.07;8.85;;;;;;;6.89;58.80;98263.69;5089746;28;20040;-56
2022/03/31 05:37:48;;;;;;;9.30;7.22;;;;;;;6.88;58.68;98256.78;5088885;28;20044;-59
2022/03/31 05:40:17;;;;;;;14.63;8.13;;;;;;;6.90;58.64;98267.16;5087937;28;20048;-58
2022/03/31 05:42:43;;;;;;;12.80;7.47;;;;;;;6.90;58.75;98259.31;5087918;28;20060;-59
2022/03/31 05:45:12;;;;;;;12.52;7.85;;;;;;;6.91;58.70;98259.22;5089504;28;20051;-59
2022/03/31 05:47:40;;;;;;;12.13;7.88;;;;;;;6.90;59.09;98254.91;5088309;28;20101;-60
2022/03/31 05:50:09;;;;;;;11.55;7.40;;;;;;;6.90;58.98;98257.53;5089324;28;20101;-60
2022/03/31 05:52:38;;;;;;;10.50;7.60;;;;;;;6.91;59.18;98267.06;5089639;28;20077;-60
2022/03/31 05:55:07;;;;;;;13.18;8.10;;;;;;;6.90;59.28;98268.00;5088139;28;20052;-61
2022/03/31 05:57:35;;;;;;;11.55;7.82;;;;;;;6.90;59.30;98268.00;5087898;28;20074;-60
2022/03/31 06:00:04;;;;;;;11.48;7.40;;;;;;;6.89;59.26;98261.06;5088090;28;20381;-59
2022/03/31 06:02:31;;;;;;;12.32;8.05;;;;;;;6.89;59.18;98263.69;5087940;28;20052;-59
2022/03/31 06:05:15;;;;;;;;;;;;;;;6.90;59.65;98265.38;5090007;28;20133;-59
2022/03/31 06:07:42;;;;;;;11.50;7.18;;;;;;;6.94;58.60;98265.16;5089216;28;19920;-60
2022/03/31 06:10:09;;;;;;;9.52;7.25;;;;;;;6.92;58.69;98265.28;5089426;28;20083;-60
2022/03/31 06:12:36;;;;;;;13.40;7.22;;;;;;;6.89;59.08;98263.69;5088307;28;20146;-59
2022/03/31 06:15:04;;;;;;;11.60;7.57;;;;;;;6.87;59.05;98270.81;5089243;28;20048;-57
2022/03/31 06:17:30;;;;;;;11.25;7.32;;;;;;;6.85;59.09;98262.25;5088166;28;20051;-59
2022/03/31 06:19:57;;;;;;;11.52;8.00;;;;;;;6.84;59.26;98276.22;5089293;28;20052;-60
2022/03/31 06:22:24;;;;;;;12.30;8.05;;;;;;;6.82;59.09;98272.91;5089570;28;20083;-59
2022/03/31 06:24:50;;;;;;;12.73;8.57;;;;;;;6.82;59.39;98269.44;5092931;28;20051;-60
2022/03/31 06:27:18;;;;;;;13.70;7.75;;;;;;;6.82;59.43;98266.81;5093159;28;20048;-56
2022/03/31 06:29:45;;;;;;;12.48;7.68;;;;;;;6.83;59.50;98265.88;5092673;28;21052;-55
2022/03/31 06:32:15;;;;;;;13.45;8.23;;;;;;;6.82;60.26;98265.06;5092522;28;20064;-58
2022/03/31 06:34:42;;;;;;;13.65;7.95;;;;;;;6.85;59.46;98269.25;5091215;28;20075;-58
2022/03/31 06:37:09;;;;;;;12.65;7.57;;;;;;;6.86;59.40;98270.91;5092860;28;20983;-60
2022/03/31 06:39:40;;;;;;;12.57;7.90;;;;;;;6.87;59.50;98268.19;5092925;28;20056;-59
2022/03/31 06:42:07;;;;;;;16.17;8.90;;;;;;;6.88;59.18;98272.47;5092881;28;20048;-59
2022/03/31 06:44:34;;;;;;;14.40;8.38;;;;;;;6.90;59.54;98275.00;5092900;28;20048;-59
2022/03/31 06:47:00;;;;;;;12.32;8.25;;;;;;;6.93;59.67;98277.41;5092767;28;20117;-59
2022/03/31 06:49:27;;;;;;;18.45;9.05;;;;;;;6.96;59.58;98273.75;5092410;28;20048;-55
2022/03/31 06:51:53;;;;;;;13.95;8.27;;;;;;;7.00;59.92;98270.00;5092764;28;20051;-57
2022/03/31 06:54:20;;;;;;;13.70;8.60;;;;;;;7.03;59.92;98269.81;5092805;28;20698;-61
2022/03/31 06:56:48;;;;;;;14.75;8.88;;;;;;;7.08;59.95;98272.94;5091364;28;20097;-59
2022/03/31 06:59:15;;;;;;;13.68;8.05;;;;;;;7.14;59.52;98282.19;5091060;28;20044;-59
2022/03/31 07:01:42;;;;;;;16.60;8.68;;;;;;;7.17;59.64;98274.94;5092329;28;20431;-60
2022/03/31 07:04:10;;;;;;;14.18;8.85;;;;;;;7.20;59.60;98276.53;5092367;28;20048;-59
2022/03/31 07:06:37;;;;;;;14.15;8.90;;;;;;;7.22;59.14;98269.38;5092494;28;20058;-60
2022/03/31 07:09:04;;;;;;;15.88;8.95;;;;;;;7.23;59.50;98271.09;5092491;28;20064;-59
2022/03/31 07:11:32;;;;;;;13.35;8.43;;;;;;;7.24;59.14;98277.16;5092009;28;20059;-59
2022/03/31 07:14:05;;;;;;;14.00;8.15;;;;;;;7.25;59.12;98276.22;5092093;28;20538;-60
2022/03/31 07:16:32;;;;;;;15.38;8.02;;;;;;;7.24;58.94;98267.53;5091890;28;20063;-60
2022/03/31 07:19:01;;;;;;;16.75;9.30;;;;;;;7.24;59.19;98271.91;5092176;28;20143;-57
2022/03/31 07:21:31;;;;;;;13.77;9.40;;;;;;;7.24;59.36;98272.75;5089995;28;20534;-60
2022/03/31 07:24:00;;;;;;;14.63;8.68;;;;;;;7.25;59.35;98273.59;5092149;28;20040;-57
2022/03/31 07:26:28;;;;;;;12.52;8.30;;;;;;;7.25;59.18;98269.19;5073602;28;20091;-58
2022/03/31 07:28:55;;;;;;;14.60;8.65;;;;;;;7.25;59.47;98271.00;5090000;28;20062;-56
2022/03/31 07:31:28;;;;;;;14.20;9.18;;;;;;;7.24;60.25;98277.16;5090686;28;20044;-59
2022/03/31 07:33:56;;;;;;;12.52;8.43;;;;;;;7.24;59.87;98267.53;5091412;28;20550;-56
2022/03/31 07:36:22;;;;;;;14.75;8.73;;;;;;;7.25;59.79;98276.22;5090266;28;20093;-58
2022/03/31 07:38:49;;;;;;;13.98;9.85;;;;;;;7.26;60.03;98270.84;5091065;28;20098;-59
2022/03/31 07:41:15;;;;;;;15.63;10.35;;;;;;;7.29;59.85;98267.22;5091345;28;20089;-59
2022/03/31 07:43:43;;;;;;;15.23;9.13;;;;;;;7.31;60.19;98270.56;5091224;28;20063;-60
2022/03/31 07:46:10;;;;;;;14.30;9.30;;;;;;;7.35;60.07;98263.34;5090379;28;20093;-60
2022/03/31 07:48:37;;;;;;;15.85;9.95;;;;;;;7.38;60.22;98260.50;5091605;28;20055;-60
2022/03/31 07:51:04;;;;;;;16.40;9.27;;;;;;;7.42;60.09;98265.44;5090162;28;20070;-60
2022/03/31 07:53:34;;;;;;;15.68;9.45;;;;;;;7.46;60.39;98260.84;5091131;28;20056;-60
2022/03/31 07:56:05;;;;;;;16.05;9.48;;;;;;;7.49;60.25;98265.00;5091476;28;20484;-60
2022/03/31 07:58:32;;;;;;;16.52;10.02;;;;;;;7.52;60.03;98262.19;5091697;28;20652;-59
2022/03/31 08:00:59;;;;;;;15.32;9.50;;;;;;;7.55;60.48;98259.34;5089941;28;20044;-60
2022/03/31 08:03:26;;;;;;;16.27;10.13;;;;;;;7.59;60.53;98262.59;5091373;28;20060;-60
2022/03/31 08:05:52;;;;;;;15.13;9.95;;;;;;;7.64;60.69;98268.38;5091264;28;20056;-60
2022/03/31 08:08:20;;;;;;;16.60;9.98;;;;;;;7.68;60.58;98260.19;5091136;28;20090;-59
2022/03/31 08:10:48;;;;;;;18.20;11.00;;;;;;;7.74;60.80;98264.16;5090752;28;20101;-60
2022/03/31 08:13:27;;;;;;;16.25;10.27;;;;;;;7.79;61.38;98261.22;5090977;28;20601;-60
2022/03/31 08:15:55;;;;;;;16.23;10.98;;;;;;;7.89;60.23;98258.81;5089605;28;20048;-61
2022/03/31 08:18:28;;;;;;;17.08;10.82;;;;;;;7.93;60.35;98258.47;5089553;28;20048;-60
2022/03/31 08:20:57;;;;;;;19.58;11.85;;;;;;;7.99;60.47;98253.75;5090745;28;20052;-60
2022/03/31 08:23:24;;;;;;;16.63;11.52;;;;;;;8.03;60.11;98252.56;5090831;28;20059;-61
2022/03/31 08:25:52;;;;;;;21.05;11.82;;;;;;;8.05;60.14;98259.41;5089570;28;20048;-59
2022/03/31 08:28:19;;;;;;;19.88;12.85;;;;;;;8.06;60.13;98260.22;5089412;28;20454;-60
2022/03/31 08:30:46;;;;;;;21.50;12.27;;;;;;;8.06;60.07;98261.06;5090249;28;20051;-61
2022/03/31 08:33:12;;;;;;;18.25;11.15;;;;;;;8.08;59.78;98264.41;5090593;28;20458;-62
2022/03/31 08:35:43;;;;;;;16.60;10.52;;;;;;;8.08;59.68;98260.97;5090478;28;20135;-60
2022/03/31 08:38:09;;;;;;;19.88;11.13;;;;;;;8.08;59.65;98263.59;5090686;28;20557;-60
2022/03/31 08:40:37;;;;;;;16.27;9.68;;;;;;;8.10;59.87;98260.88;5090322;28;20074;-62
2022/03/31 08:43:04;;;;;;;19.55;11.15;;;;;;;8.10;59.97;98261.69;5090847;28;20055;-60
2022/03/31 08:45:35;;;;;;;17.92;10.25;;;;;;;8.08;60.59;98263.59;5089671;28;20047;-60
2022/03/31 08:48:04;;;;;;;16.25;9.35;;;;;;;8.09;59.78;98260.00;5089147;28;20048;-60
2022/03/31 08:50:34;;;;;;;17.00;10.07;;;;;;;8.09;60.52;98265.25;5090336;28;20056;-62
2022/03/31 08:53:02;;;;;;;22.42;10.15;;;;;;;8.11;60.27;98265.16;5089120;28;20063;-60
2022/03/31 08:55:29;;;;;;;15.05;10.00;;;;;;;8.12;60.18;98267.66;5090255;28;20485;-61
2022/03/31 08:57:56;;;;;;;14.23;9.52;;;;;;;8.13;60.19;98266.72;5090164;28;20055;-60
2022/03/31 09:00:24;;;;;;;16.73;10.38;;;;;;;8.14;60.15;98268.38;5090096;28;20093;-62
2022/03/31 09:02:53;;;;;;;18.58;10.30;;;;;;;8.16;60.16;98277.00;5088686;28;20449;-59
2022/03/31 09:05:20;;;;;;;18.80;11.13;;;;;;;8.18;60.58;98272.47;5089021;28;20123;-60
2022/03/31 09:08:02;;;;;;;15.80;10.35;;;;;;;8.19;61.24;98275.94;5090235;28;20044;-59
2022/03/31 09:10:30;;;;;;;15.57;9.75;;;;;;;8.26;60.52;98281.56;5089830;28;20052;-64
2022/03/31 09:13:00;;;;;;;18.00;11.45;;;;;;;8.30;60.85;98280.41;5089890;28;20492;-61
2022/03/31 09:15:32;;;;;;;15.18;10.30;;;;;;;8.34;60.64;98277.44;5088628;28;20052;-61
2022/03/31 09:17:59;;;;;;;18.45;10.80;;;;;;;8.40;60.67;98285.81;5088583;28;20484;-60
2022/03/31 09:20:40;;;;;;;17.30;10.55;;;;;;;8.41;61.22;98280.47;5088637;28;20043;-61
2022/03/31 09:23:07;;;;;;;17.25;11.13;;;;;;;8.47;60.27;98282.66;5088820;28;20075;-60
2022/03/31 09:25:33;;;;;;;18.83;11.80;;;;;;;8.48;59.94;98284.31;5089841;28;20653;-59
2022/03/31 09:28:21;;;;;;;19.58;11.60;;;;;;;8.46;60.90;98280.13;5089783;28;20538;-61
2022/03/31 09:30:49;;;;;;;28.13;11.30;;;;;;;8.50;59.62;98272.88;5089761;28;20059;-59
2022/03/31 09:33:34;;;;;;;19.40;13.30;;;;;;;8.47;60.71;98274.78;5088623;28;20088;-59
2022/03/31 09:36:22;;;;;;;22.13;13.48;;;;;;;8.49;61.25;98277.31;5089852;28;20073;-61
2022/03/31 09:39:05;;;;;;;23.02;15.30;;;;;;;8.53;61.09;98281.41;5089889;28;20105;-61
2022/03/31 09:41:36;;;;;;;23.45;15.20;;;;;;;8.62;60.73;98284.28;5089797;28;20130;-59
2022/03/31 09:44:08;;;;;;;31.42;17.20;;;;;;;8.64;60.42;98275.38;5088742;28;20052;-60
2022/03/31 09:46:38;;;;;;;25.70;16.77;;;;;;;8.67;59.91;98271.69;5088603;28;20048;-60
2022/03/31 09:49:17;;;;;;;31.63;20.00;;;;;;;8.65;60.51;98277.06;5088575;28;20052;-63
2022/03/31 09:51:47;;;;;;;28.52;20.08;;;;;;;8.69;59.99;98272.41;5088739;28;20052;-59
2022/03/31 09:54:13;;;;;;;31.15;20.90;;;;;;;8.71;60.06;98268.72;5088241;28;20056;-60
2022/03/31 09:56:40;;;;;;;33.17;21.38;;;;;;;8.75;60.38;98263.25;5090599;28;20047;-60
2022/03/31 09:59:09;;;;;;;40.30;22.38;;;;;;;8.79;60.38;98265.53;5093537;28;20059;-60
2022/03/31 10:01:44;;;;;;;34.25;22.80;;;;;;;8.87;60.09;98270.22;5093531;28;20140;-60
2022/03/31 10:04:13;;;;;;;34.63;23.02;;;;;;;8.92;59.73;98262.00;5093726;28;20052;-60
2022/03/31 10:06:42;;;;;;;35.42;23.02;;;;;;;8.95;59.36;98261.78;5093522;28;20051;-59
2022/03/31 10:09:12;;;;;;;30.73;21.55;;;;;;;8.97;59.56;98273.81;5091881;28;20061;-61
2022/03/31 10:11:41;;;;;;;35.17;22.70;;;;;;;8.98;58.71;98267.63;5093158;28;20109;-61
2022/03/31 10:14:26;;;;;;;34.25;22.17;;;;;;;8.95;58.75;98265.25;5093442;28;20051;-60
2022/03/31 10:17:05;;;;;;;34.53;22.85;;;;;;;8.96;58.84;98266.06;5091833;28;20052;-60
2022/03/31 10:19:40;;;;;;;31.65;21.92;;;;;;;8.94;58.49;98268.78;5091588;28;20446;-58
2022/03/31 10:25:00;;;;;;;34.83;21.52;;;;;;;8.94;58.12;98267.97;5092493;28;20052;-58
2022/03/31 10:27:32;;;;;;;33.38;21.77;;;;;;;8.91;58.36;98263.81;5091085;28;20048;-59
2022/03/31 10:30:18;;;;;;;33.35;21.88;;;;;;;8.89;58.98;98270.13;5091019;28;20051;-59
2022/03/31 10:32:57;;;;;;;36.08;23.70;;;;;;;8.90;58.87;98261.28;5093151;28;20460;-62
2022/03/31 10:35:33;;;;;;;35.28;23.33;;;;;;;8.91;58.67;98266.44;5091449;28;20440;-61
2022/03/31 10:38:15;;;;;;;37.13;22.90;;;;;;;8.90;58.99;98261.28;5092996;28;20476;-60
2022/03/31 10:40:49;;;;;;;35.60;22.90;;;;;;;8.92;58.53;98260.22;5092670;28;20451;-60
2022/03/31 10:43:27;;;;;;;34.80;23.00;;;;;;;8.90;58.23;98262.09;5093245;28;20048;-61
2022/03/31 10:45:54;;;;;;;36.47;22.48;;;;;;;8.93;58.30;98255.81;5091762;28;20052;-61
2022/03/31 10:48:25;;;;;;;36.05;22.70;;;;;;;8.93;58.27;98253.19;5092998;28;20085;-60
2022/03/31 10:51:10;;;;;;;33.10;21.83;;;;;;;8.93;58.77;98251.38;5091366;28;20134;-62
2022/03/31 10:53:39;;;;;;;35.20;22.70;;;;;;;9.03;58.52;98251.53;5091714;28;20063;-59
2022/03/31 10:56:27;;;;;;;33.78;22.02;;;;;;;9.08;58.29;98257.28;5091175;28;20048;-60
2022/03/31 10:58:57;;;;;;;31.23;20.42;;;;;;;9.17;58.12;98247.88;5091637;28;20044;-62
2022/03/31 11:01:34;;;;;;;31.38;20.20;;;;;;;9.21;57.99;98248.47;5092141;28;20052;-60
2022/03/31 11:04:03;;;;;;;32.42;21.50;;;;;;;9.28;57.77;98246.22;5091185;28;20055;-62
2022/03/31 11:06:30;;;;;;;31.80;20.30;;;;;;;9.28;57.12;98241.81;5092035;28;20097;-59
2022/03/31 11:08:57;;;;;;;30.08;18.98;;;;;;;9.25;57.38;98245.53;5091681;28;20052;-60
2022/03/31 11:11:29;;;;;;;31.10;20.00;;;;;;;9.20;56.80;98252.88;5092194;28;20052;-60
2022/03/31 11:13:58;;;;;;;32.35;20.27;;;;;;;9.15;56.63;98249.78;5092249;28;20101;-60
2022/03/31 11:16:38;;;;;;;28.35;18.95;;;;;;;9.05;57.11;98243.56;5091084;28;20112;-60
2022/03/31 11:19:07;;;;;;;27.73;19.20;;;;;;;9.03;56.60;98250.69;5090981;28;20090;-63
2022/03/31 11:21:35;;;;;;;30.90;18.98;;;;;;;8.95;56.75;98248.66;5090785;28;20492;-58
2022/03/31 11:24:05;;;;;;;25.80;17.75;;;;;;;8.89;56.49;98239.44;5092006;28;20105;-60
2022/03/31 11:26:46;;;;;;;29.25;17.83;;;;;;;8.83;56.76;98242.53;5090506;28;20488;-61
2022/03/31 11:29:16;;;;;;;25.95;16.70;;;;;;;8.78;56.56;98236.81;5091734;28;20430;-61
2022/03/31 11:31:54;;;;;;;24.20;16.23;;;;;;;8.72;56.85;98243.34;5091923;28;20545;-59
2022/03/31 11:34:25;;;;;;;28.90;16.67;;;;;;;8.72;56.75;98244.16;5090752;28;20055;-59
2022/03/31 11:36:53;;;;;;;27.08;17.77;;;;;;;8.71;57.55;98237.25;5090505;28;20044;-59
2022/03/31 11:39:24;;;;;;;27.23;18.70;;;;;;;8.72;58.04;98236.28;5091802;28;20505;-60
2022/03/31 11:41:53;;;;;;;31.88;18.10;;;;;;;8.77;57.89;98233.31;5090825;28;20082;-60
2022/03/31 11:44:21;;;;;;;28.02;17.70;;;;;;;8.82;58.27;98233.00;5090462;28;20048;-60